sensor_id;sensor_type;location;lat;lon;timestamp;P1;durP1;ratioP1;P2;durP2;ratioP2
12774;SDS011;6451;42.630;23.382;2022-12-05T00:01:46;9.30;;;6.80;;
12774;SDS011;6451;42.630;23.382;2022-12-05T00:04:14;8.13;;;6.57;;
12774;SDS011;6451;42.630;23.382;2022-12-05T00:06:58;9.23;;;6.77;;
12774;SDS011;6451;42.630;23.382;2022-12-05T00:09:26;9.83;;;6.87;;
12774;SDS011;6451;42.630;23.382;2022-12-05T00:11:53;10.07;;;6.77;;
12774;SDS011;6451;42.630;23.382;2022-12-05T00:14:23;9.73;;;7.13;;
12774;SDS011;6451;42.630;23.382;2022-12-05T00:16:50;8.73;;;6.40;;
12774;SDS011;6451;42.630;23.382;2022-12-05T00:19:17;9.20;;;6.70;;
12774;SDS011;6451;42.630;23.382;2022-12-05T00:21:45;8.47;;;6.27;;
12774;SDS011;6451;42.630;23.382;2022-12-05T00:24:13;7.83;;;5.63;;
12774;SDS011;6451;42.630;23.382;2022-12-05T00:26:41;8.60;;;6.50;;
12774;SDS011;6451;42.630;23.382;2022-12-05T00:29:09;11.43;;;6.73;;
12774;SDS011;6451;42.630;23.382;2022-12-05T00:31:38;7.80;;;6.20;;
12774;SDS011;6451;42.630;23.382;2022-12-05T00:34:05;8.80;;;6.30;;
12774;SDS011;6451;42.630;23.382;2022-12-05T00:36:33;9.63;;;6.87;;
12774;SDS011;6451;42.630;23.382;2022-12-05T00:39:07;7.13;;;6.20;;
12774;SDS011;6451;42.630;23.382;2022-12-05T00:41:37;12.90;;;7.03;;
12774;SDS011;6451;42.630;23.382;2022-12-05T00:44:04;11.40;;;7.07;;
12774;SDS011;6451;42.630;23.382;2022-12-05T00:46:32;8.20;;;6.53;;
12774;SDS011;6451;42.630;23.382;2022-12-05T00:49:02;8.47;;;6.67;;
12774;SDS011;6451;42.630;23.382;2022-12-05T00:51:32;8.50;;;6.50;;
12774;SDS011;6451;42.630;23.382;2022-12-05T00:54:02;10.63;;;6.97;;
12774;SDS011;6451;42.630;23.382;2022-12-05T00:56:31;9.53;;;6.70;;
12774;SDS011;6451;42.630;23.382;2022-12-05T00:58:59;8.20;;;6.27;;
12774;SDS011;6451;42.630;23.382;2022-12-05T01:01:29;7.90;;;6.17;;
12774;SDS011;6451;42.630;23.382;2022-12-05T01:03:58;8.27;;;6.30;;
12774;SDS011;6451;42.630;23.382;2022-12-05T01:06:27;8.73;;;5.90;;
12774;SDS011;6451;42.630;23.382;2022-12-05T01:08:57;7.53;;;5.83;;
12774;SDS011;6451;42.630;23.382;2022-12-05T01:11:24;9.37;;;6.87;;
12774;SDS011;6451;42.630;23.382;2022-12-05T01:13:53;10.67;;;6.77;;
12774;SDS011;6451;42.630;23.382;2022-12-05T01:16:22;8.67;;;6.57;;
12774;SDS011;6451;42.630;23.382;2022-12-05T01:18:52;7.67;;;5.97;;
12774;SDS011;6451;42.630;23.382;2022-12-05T01:21:20;8.20;;;5.57;;
12774;SDS011;6451;42.630;23.382;2022-12-05T01:23:49;8.67;;;6.10;;
12774;SDS011;6451;42.630;23.382;2022-12-05T01:26:18;8.80;;;6.27;;
12774;SDS011;6451;42.630;23.382;2022-12-05T01:28:46;8.30;;;6.20;;
12774;SDS011;6451;42.630;23.382;2022-12-05T01:31:16;7.57;;;5.60;;
12774;SDS011;6451;42.630;23.382;2022-12-05T01:34:03;7.57;;;5.97;;
12774;SDS011;6451;42.630;23.382;2022-12-05T01:36:33;8.47;;;6.07;;
12774;SDS011;6451;42.630;23.382;2022-12-05T01:39:02;9.20;;;5.97;;
12774;SDS011;6451;42.630;23.382;2022-12-05T01:41:32;7.97;;;6.23;;
12774;SDS011;6451;42.630;23.382;2022-12-05T01:44:01;9.10;;;6.23;;
12774;SDS011;6451;42.630;23.382;2022-12-05T01:46:30;9.93;;;6.13;;
12774;SDS011;6451;42.630;23.382;2022-12-05T01:49:01;9.20;;;6.07;;
12774;SDS011;6451;42.630;23.382;2022-12-05T01:51:31;12.27;;;7.47;;
12774;SDS011;6451;42.630;23.382;2022-12-05T01:54:02;10.27;;;7.20;;
12774;SDS011;6451;42.630;23.382;2022-12-05T01:56:31;9.60;;;6.90;;
12774;SDS011;6451;42.630;23.382;2022-12-05T01:59:00;8.43;;;6.33;;
12774;SDS011;6451;42.630;23.382;2022-12-05T02:01:29;10.17;;;7.17;;
12774;SDS011;6451;42.630;23.382;2022-12-05T02:03:57;10.53;;;7.23;;
12774;SDS011;6451;42.630;23.382;2022-12-05T02:06:25;9.20;;;6.57;;
12774;SDS011;6451;42.630;23.382;2022-12-05T02:08:54;10.90;;;7.13;;
12774;SDS011;6451;42.630;23.382;2022-12-05T02:11:23;9.73;;;6.80;;
12774;SDS011;6451;42.630;23.382;2022-12-05T02:14:06;9.90;;;6.70;;
12774;SDS011;6451;42.630;23.382;2022-12-05T02:16:47;9.60;;;6.63;;
12774;SDS011;6451;42.630;23.382;2022-12-05T02:19:30;8.27;;;6.00;;
12774;SDS011;6451;42.630;23.382;2022-12-05T02:22:19;9.27;;;6.47;;
12774;SDS011;6451;42.630;23.382;2022-12-05T02:25:14;9.50;;;6.97;;
12774;SDS011;6451;42.630;23.382;2022-12-05T02:28:01;11.07;;;7.17;;
12774;SDS011;6451;42.630;23.382;2022-12-05T02:30:44;9.70;;;6.97;;
12774;SDS011;6451;42.630;23.382;2022-12-05T02:33:20;9.87;;;7.03;;
12774;SDS011;6451;42.630;23.382;2022-12-05T02:35:57;8.87;;;6.57;;
12774;SDS011;6451;42.630;23.382;2022-12-05T02:38:33;10.00;;;7.03;;
12774;SDS011;6451;42.630;23.382;2022-12-05T02:41:09;9.93;;;7.10;;
12774;SDS011;6451;42.630;23.382;2022-12-05T02:43:43;9.37;;;6.90;;
12774;SDS011;6451;42.630;23.382;2022-12-05T02:46:22;9.60;;;7.00;;
12774;SDS011;6451;42.630;23.382;2022-12-05T02:48:53;9.27;;;7.07;;
12774;SDS011;6451;42.630;23.382;2022-12-05T02:51:24;9.67;;;7.03;;
12774;SDS011;6451;42.630;23.382;2022-12-05T02:53:57;10.27;;;6.97;;
12774;SDS011;6451;42.630;23.382;2022-12-05T02:56:28;11.40;;;7.57;;
12774;SDS011;6451;42.630;23.382;2022-12-05T02:58:58;10.07;;;6.93;;
12774;SDS011;6451;42.630;23.382;2022-12-05T03:01:30;9.80;;;7.17;;
12774;SDS011;6451;42.630;23.382;2022-12-05T03:04:00;9.43;;;6.60;;
12774;SDS011;6451;42.630;23.382;2022-12-05T03:06:31;9.37;;;6.50;;
12774;SDS011;6451;42.630;23.382;2022-12-05T03:09:04;10.83;;;7.10;;
12774;SDS011;6451;42.630;23.382;2022-12-05T03:11:38;11.60;;;7.47;;
12774;SDS011;6451;42.630;23.382;2022-12-05T03:14:10;8.03;;;6.23;;
12774;SDS011;6451;42.630;23.382;2022-12-05T03:16:43;8.30;;;6.40;;
12774;SDS011;6451;42.630;23.382;2022-12-05T03:19:16;9.70;;;6.77;;
12774;SDS011;6451;42.630;23.382;2022-12-05T03:21:48;9.63;;;5.90;;
12774;SDS011;6451;42.630;23.382;2022-12-05T03:24:18;9.83;;;6.97;;
12774;SDS011;6451;42.630;23.382;2022-12-05T03:26:47;11.17;;;7.00;;
12774;SDS011;6451;42.630;23.382;2022-12-05T03:29:24;11.60;;;7.50;;
12774;SDS011;6451;42.630;23.382;2022-12-05T03:32:04;10.53;;;7.20;;
12774;SDS011;6451;42.630;23.382;2022-12-05T03:34:46;8.93;;;6.83;;
12774;SDS011;6451;42.630;23.382;2022-12-05T03:37:24;9.70;;;7.17;;
12774;SDS011;6451;42.630;23.382;2022-12-05T03:39:59;11.63;;;7.17;;
12774;SDS011;6451;42.630;23.382;2022-12-05T03:42:34;10.77;;;7.17;;
12774;SDS011;6451;42.630;23.382;2022-12-05T03:45:06;9.23;;;6.90;;
12774;SDS011;6451;42.630;23.382;2022-12-05T03:47:41;12.07;;;7.77;;
12774;SDS011;6451;42.630;23.382;2022-12-05T03:50:15;9.77;;;6.67;;
12774;SDS011;6451;42.630;23.382;2022-12-05T03:52:48;10.43;;;7.00;;
12774;SDS011;6451;42.630;23.382;2022-12-05T03:55:20;9.30;;;6.43;;
12774;SDS011;6451;42.630;23.382;2022-12-05T03:57:52;9.07;;;6.07;;
12774;SDS011;6451;42.630;23.382;2022-12-05T04:00:23;10.57;;;7.27;;
12774;SDS011;6451;42.630;23.382;2022-12-05T04:02:56;10.13;;;7.03;;
12774;SDS011;6451;42.630;23.382;2022-12-05T04:05:29;9.73;;;6.87;;
12774;SDS011;6451;42.630;23.382;2022-12-05T04:08:02;10.37;;;7.47;;
12774;SDS011;6451;42.630;23.382;2022-12-05T04:10:36;10.80;;;7.43;;
12774;SDS011;6451;42.630;23.382;2022-12-05T04:13:14;8.67;;;6.60;;
12774;SDS011;6451;42.630;23.382;2022-12-05T04:15:47;8.60;;;6.30;;
12774;SDS011;6451;42.630;23.382;2022-12-05T04:18:40;10.73;;;6.90;;
12774;SDS011;6451;42.630;23.382;2022-12-05T04:21:15;10.37;;;6.93;;
12774;SDS011;6451;42.630;23.382;2022-12-05T04:24:04;10.40;;;7.07;;
12774;SDS011;6451;42.630;23.382;2022-12-05T04:26:52;9.17;;;7.00;;
12774;SDS011;6451;42.630;23.382;2022-12-05T04:29:31;11.10;;;7.20;;
12774;SDS011;6451;42.630;23.382;2022-12-05T04:32:07;10.23;;;6.80;;
12774;SDS011;6451;42.630;23.382;2022-12-05T04:34:37;10.70;;;7.50;;
12774;SDS011;6451;42.630;23.382;2022-12-05T04:37:09;10.83;;;6.90;;
12774;SDS011;6451;42.630;23.382;2022-12-05T04:39:40;11.33;;;7.30;;
12774;SDS011;6451;42.630;23.382;2022-12-05T04:42:12;9.47;;;7.03;;
12774;SDS011;6451;42.630;23.382;2022-12-05T04:44:43;9.80;;;7.27;;
12774;SDS011;6451;42.630;23.382;2022-12-05T04:47:16;10.43;;;7.13;;
12774;SDS011;6451;42.630;23.382;2022-12-05T04:49:48;11.57;;;7.63;;
12774;SDS011;6451;42.630;23.382;2022-12-05T04:54:51;10.47;;;7.53;;
12774;SDS011;6451;42.630;23.382;2022-12-05T04:57:23;11.60;;;7.90;;
12774;SDS011;6451;42.630;23.382;2022-12-05T04:59:59;12.07;;;7.97;;
12774;SDS011;6451;42.630;23.382;2022-12-05T05:02:27;9.97;;;7.57;;
12774;SDS011;6451;42.630;23.382;2022-12-05T05:05:01;11.97;;;7.80;;
12774;SDS011;6451;42.630;23.382;2022-12-05T05:07:40;11.63;;;8.00;;
12774;SDS011;6451;42.630;23.382;2022-12-05T05:10:10;11.53;;;8.10;;
12774;SDS011;6451;42.630;23.382;2022-12-05T05:12:40;12.10;;;8.57;;
12774;SDS011;6451;42.630;23.382;2022-12-05T05:15:08;13.13;;;8.90;;
12774;SDS011;6451;42.630;23.382;2022-12-05T05:17:36;14.07;;;9.53;;
12774;SDS011;6451;42.630;23.382;2022-12-05T05:20:04;17.73;;;9.80;;
12774;SDS011;6451;42.630;23.382;2022-12-05T05:22:47;15.03;;;10.60;;
12774;SDS011;6451;42.630;23.382;2022-12-05T05:25:16;14.03;;;9.40;;
12774;SDS011;6451;42.630;23.382;2022-12-05T05:28:07;15.07;;;10.27;;
12774;SDS011;6451;42.630;23.382;2022-12-05T05:30:47;13.60;;;9.70;;
12774;SDS011;6451;42.630;23.382;2022-12-05T05:33:16;13.60;;;8.73;;
12774;SDS011;6451;42.630;23.382;2022-12-05T05:35:44;10.30;;;8.20;;
12774;SDS011;6451;42.630;23.382;2022-12-05T05:38:11;13.23;;;8.87;;
12774;SDS011;6451;42.630;23.382;2022-12-05T05:40:39;11.03;;;8.03;;
12774;SDS011;6451;42.630;23.382;2022-12-05T05:43:06;9.73;;;7.67;;
12774;SDS011;6451;42.630;23.382;2022-12-05T05:45:35;12.40;;;8.30;;
12774;SDS011;6451;42.630;23.382;2022-12-05T05:48:02;10.77;;;7.70;;
12774;SDS011;6451;42.630;23.382;2022-12-05T05:50:29;13.90;;;9.20;;
12774;SDS011;6451;42.630;23.382;2022-12-05T05:52:58;12.97;;;9.50;;
12774;SDS011;6451;42.630;23.382;2022-12-05T05:55:26;13.93;;;9.63;;
12774;SDS011;6451;42.630;23.382;2022-12-05T05:57:53;12.30;;;9.23;;
12774;SDS011;6451;42.630;23.382;2022-12-05T06:00:21;12.40;;;9.70;;
12774;SDS011;6451;42.630;23.382;2022-12-05T06:02:48;12.57;;;8.97;;
12774;SDS011;6451;42.630;23.382;2022-12-05T06:05:16;12.07;;;8.87;;
12774;SDS011;6451;42.630;23.382;2022-12-05T06:07:44;14.17;;;10.00;;
12774;SDS011;6451;42.630;23.382;2022-12-05T06:10:12;13.40;;;10.50;;
12774;SDS011;6451;42.630;23.382;2022-12-05T06:12:39;11.67;;;9.43;;
12774;SDS011;6451;42.630;23.382;2022-12-05T06:15:07;12.63;;;9.13;;
12774;SDS011;6451;42.630;23.382;2022-12-05T06:17:34;13.20;;;9.23;;
12774;SDS011;6451;42.630;23.382;2022-12-05T06:20:02;13.10;;;8.60;;
12774;SDS011;6451;42.630;23.382;2022-12-05T06:22:29;12.93;;;8.30;;
12774;SDS011;6451;42.630;23.382;2022-12-05T06:24:56;11.30;;;8.53;;
12774;SDS011;6451;42.630;23.382;2022-12-05T06:27:25;14.47;;;9.03;;
12774;SDS011;6451;42.630;23.382;2022-12-05T06:29:55;13.87;;;8.07;;
12774;SDS011;6451;42.630;23.382;2022-12-05T06:32:22;10.40;;;8.03;;
12774;SDS011;6451;42.630;23.382;2022-12-05T06:34:49;11.10;;;8.47;;
12774;SDS011;6451;42.630;23.382;2022-12-05T06:37:17;11.77;;;8.47;;
12774;SDS011;6451;42.630;23.382;2022-12-05T06:39:44;11.83;;;8.40;;
12774;SDS011;6451;42.630;23.382;2022-12-05T06:42:12;10.50;;;8.03;;
12774;SDS011;6451;42.630;23.382;2022-12-05T06:44:40;11.20;;;7.77;;
12774;SDS011;6451;42.630;23.382;2022-12-05T06:47:08;10.33;;;7.80;;
12774;SDS011;6451;42.630;23.382;2022-12-05T06:49:36;12.87;;;8.27;;
12774;SDS011;6451;42.630;23.382;2022-12-05T06:52:04;10.93;;;8.37;;
12774;SDS011;6451;42.630;23.382;2022-12-05T06:54:32;12.03;;;8.67;;
12774;SDS011;6451;42.630;23.382;2022-12-05T06:56:59;12.13;;;9.27;;
12774;SDS011;6451;42.630;23.382;2022-12-05T06:59:27;10.13;;;8.30;;
12774;SDS011;6451;42.630;23.382;2022-12-05T07:01:55;11.63;;;9.73;;
12774;SDS011;6451;42.630;23.382;2022-12-05T07:04:23;15.00;;;10.10;;
12774;SDS011;6451;42.630;23.382;2022-12-05T07:06:53;11.10;;;8.17;;
12774;SDS011;6451;42.630;23.382;2022-12-05T07:09:22;10.33;;;7.43;;
12774;SDS011;6451;42.630;23.382;2022-12-05T07:12:10;10.00;;;7.20;;
12774;SDS011;6451;42.630;23.382;2022-12-05T07:14:38;10.13;;;7.50;;
12774;SDS011;6451;42.630;23.382;2022-12-05T07:17:07;9.93;;;7.30;;
12774;SDS011;6451;42.630;23.382;2022-12-05T07:19:34;10.87;;;6.90;;
12774;SDS011;6451;42.630;23.382;2022-12-05T07:22:02;10.23;;;7.07;;
12774;SDS011;6451;42.630;23.382;2022-12-05T07:24:31;10.73;;;7.50;;
12774;SDS011;6451;42.630;23.382;2022-12-05T07:27:01;9.87;;;7.47;;
12774;SDS011;6451;42.630;23.382;2022-12-05T07:29:31;11.30;;;7.47;;
12774;SDS011;6451;42.630;23.382;2022-12-05T07:32:11;10.53;;;7.60;;
12774;SDS011;6451;42.630;23.382;2022-12-05T07:34:38;11.40;;;7.30;;
12774;SDS011;6451;42.630;23.382;2022-12-05T07:37:06;11.30;;;7.50;;
12774;SDS011;6451;42.630;23.382;2022-12-05T07:39:33;9.27;;;6.80;;
12774;SDS011;6451;42.630;23.382;2022-12-05T07:42:01;9.63;;;6.77;;
12774;SDS011;6451;42.630;23.382;2022-12-05T07:44:28;8.50;;;6.47;;
12774;SDS011;6451;42.630;23.382;2022-12-05T07:46:56;9.17;;;7.03;;
12774;SDS011;6451;42.630;23.382;2022-12-05T07:49:25;10.30;;;7.20;;
12774;SDS011;6451;42.630;23.382;2022-12-05T07:51:52;7.80;;;6.43;;
12774;SDS011;6451;42.630;23.382;2022-12-05T07:54:20;8.47;;;6.83;;
12774;SDS011;6451;42.630;23.382;2022-12-05T07:56:49;8.20;;;6.63;;
12774;SDS011;6451;42.630;23.382;2022-12-05T07:59:16;8.73;;;7.10;;
12774;SDS011;6451;42.630;23.382;2022-12-05T08:01:43;9.53;;;6.43;;
12774;SDS011;6451;42.630;23.382;2022-12-05T08:04:10;8.93;;;7.03;;
12774;SDS011;6451;42.630;23.382;2022-12-05T08:06:39;8.50;;;6.73;;
12774;SDS011;6451;42.630;23.382;2022-12-05T08:09:09;9.30;;;6.63;;
12774;SDS011;6451;42.630;23.382;2022-12-05T08:11:37;8.17;;;6.27;;
12774;SDS011;6451;42.630;23.382;2022-12-05T08:14:05;10.97;;;6.70;;
12774;SDS011;6451;42.630;23.382;2022-12-05T08:16:32;8.70;;;7.13;;
12774;SDS011;6451;42.630;23.382;2022-12-05T08:19:02;12.07;;;8.47;;
12774;SDS011;6451;42.630;23.382;2022-12-05T08:21:31;8.67;;;6.80;;
12774;SDS011;6451;42.630;23.382;2022-12-05T08:24:00;8.13;;;6.30;;
12774;SDS011;6451;42.630;23.382;2022-12-05T08:26:30;9.60;;;6.43;;
12774;SDS011;6451;42.630;23.382;2022-12-05T08:28:59;8.47;;;6.40;;
12774;SDS011;6451;42.630;23.382;2022-12-05T08:31:28;6.07;;;5.00;;
12774;SDS011;6451;42.630;23.382;2022-12-05T08:33:57;9.57;;;5.60;;
12774;SDS011;6451;42.630;23.382;2022-12-05T08:36:25;8.33;;;5.33;;
12774;SDS011;6451;42.630;23.382;2022-12-05T08:38:55;6.80;;;5.33;;
12774;SDS011;6451;42.630;23.382;2022-12-05T08:41:25;7.40;;;5.97;;
12774;SDS011;6451;42.630;23.382;2022-12-05T08:43:54;5.33;;;4.67;;
12774;SDS011;6451;42.630;23.382;2022-12-05T08:46:22;7.80;;;4.83;;
12774;SDS011;6451;42.630;23.382;2022-12-05T08:48:50;5.90;;;4.70;;
12774;SDS011;6451;42.630;23.382;2022-12-05T08:51:17;6.30;;;5.20;;
12774;SDS011;6451;42.630;23.382;2022-12-05T08:53:45;7.83;;;5.40;;
12774;SDS011;6451;42.630;23.382;2022-12-05T08:56:12;6.07;;;4.70;;
12774;SDS011;6451;42.630;23.382;2022-12-05T08:58:41;5.87;;;4.67;;
12774;SDS011;6451;42.630;23.382;2022-12-05T09:01:09;6.30;;;4.97;;
12774;SDS011;6451;42.630;23.382;2022-12-05T09:03:38;6.00;;;4.90;;
12774;SDS011;6451;42.630;23.382;2022-12-05T09:06:08;5.93;;;5.00;;
12774;SDS011;6451;42.630;23.382;2022-12-05T09:08:52;5.33;;;4.50;;
12774;SDS011;6451;42.630;23.382;2022-12-05T09:11:21;5.70;;;4.30;;
12774;SDS011;6451;42.630;23.382;2022-12-05T09:13:52;5.23;;;4.40;;
12774;SDS011;6451;42.630;23.382;2022-12-05T09:16:22;5.37;;;4.37;;
12774;SDS011;6451;42.630;23.382;2022-12-05T09:18:51;5.80;;;4.30;;
12774;SDS011;6451;42.630;23.382;2022-12-05T09:21:18;7.83;;;4.60;;
12774;SDS011;6451;42.630;23.382;2022-12-05T09:23:47;6.30;;;4.90;;
12774;SDS011;6451;42.630;23.382;2022-12-05T09:26:15;7.40;;;4.60;;
12774;SDS011;6451;42.630;23.382;2022-12-05T09:28:44;6.23;;;4.93;;
12774;SDS011;6451;42.630;23.382;2022-12-05T09:31:13;6.07;;;4.83;;
12774;SDS011;6451;42.630;23.382;2022-12-05T09:33:43;7.13;;;5.07;;
12774;SDS011;6451;42.630;23.382;2022-12-05T09:36:12;6.67;;;5.07;;
12774;SDS011;6451;42.630;23.382;2022-12-05T09:38:41;5.93;;;4.97;;
12774;SDS011;6451;42.630;23.382;2022-12-05T09:41:12;5.53;;;4.80;;
12774;SDS011;6451;42.630;23.382;2022-12-05T09:44:07;6.97;;;5.87;;
12774;SDS011;6451;42.630;23.382;2022-12-05T09:46:45;5.70;;;5.10;;
12774;SDS011;6451;42.630;23.382;2022-12-05T09:49:19;9.13;;;5.43;;
12774;SDS011;6451;42.630;23.382;2022-12-05T09:51:49;4.67;;;4.10;;
12774;SDS011;6451;42.630;23.382;2022-12-05T09:54:18;6.77;;;4.83;;
12774;SDS011;6451;42.630;23.382;2022-12-05T09:56:48;5.23;;;4.60;;
12774;SDS011;6451;42.630;23.382;2022-12-05T09:59:18;6.17;;;4.70;;
12774;SDS011;6451;42.630;23.382;2022-12-05T10:01:49;5.63;;;4.80;;
12774;SDS011;6451;42.630;23.382;2022-12-05T10:04:28;6.50;;;5.00;;
12774;SDS011;6451;42.630;23.382;2022-12-05T10:07:12;5.57;;;4.40;;
12774;SDS011;6451;42.630;23.382;2022-12-05T10:09:50;6.00;;;4.70;;
12774;SDS011;6451;42.630;23.382;2022-12-05T10:12:34;5.27;;;4.77;;
12774;SDS011;6451;42.630;23.382;2022-12-05T10:15:12;6.17;;;5.23;;
12774;SDS011;6451;42.630;23.382;2022-12-05T10:17:46;6.10;;;4.80;;
12774;SDS011;6451;42.630;23.382;2022-12-05T10:20:20;6.33;;;4.63;;
12774;SDS011;6451;42.630;23.382;2022-12-05T10:22:54;6.00;;;5.40;;
12774;SDS011;6451;42.630;23.382;2022-12-05T10:25:26;6.37;;;5.03;;
12774;SDS011;6451;42.630;23.382;2022-12-05T10:27:55;6.07;;;5.30;;
12774;SDS011;6451;42.630;23.382;2022-12-05T10:30:27;6.73;;;5.20;;
12774;SDS011;6451;42.630;23.382;2022-12-05T10:32:59;6.90;;;5.43;;
12774;SDS011;6451;42.630;23.382;2022-12-05T10:35:31;6.23;;;5.50;;
12774;SDS011;6451;42.630;23.382;2022-12-05T10:38:02;7.40;;;5.47;;
12774;SDS011;6451;42.630;23.382;2022-12-05T10:40:32;5.80;;;5.13;;
12774;SDS011;6451;42.630;23.382;2022-12-05T10:43:02;6.93;;;5.63;;
12774;SDS011;6451;42.630;23.382;2022-12-05T10:45:30;8.27;;;5.10;;
12774;SDS011;6451;42.630;23.382;2022-12-05T10:48:00;6.13;;;4.90;;
12774;SDS011;6451;42.630;23.382;2022-12-05T10:50:30;6.80;;;5.60;;
12774;SDS011;6451;42.630;23.382;2022-12-05T10:52:59;5.53;;;4.53;;
12774;SDS011;6451;42.630;23.382;2022-12-05T10:55:30;6.90;;;5.37;;
12774;SDS011;6451;42.630;23.382;2022-12-05T10:58:09;6.47;;;5.33;;
12774;SDS011;6451;42.630;23.382;2022-12-05T11:00:39;7.93;;;5.40;;
12774;SDS011;6451;42.630;23.382;2022-12-05T11:03:28;8.93;;;5.63;;
12774;SDS011;6451;42.630;23.382;2022-12-05T11:05:58;5.50;;;4.93;;
12774;SDS011;6451;42.630;23.382;2022-12-05T11:08:28;6.73;;;5.73;;
12774;SDS011;6451;42.630;23.382;2022-12-05T11:11:01;6.50;;;5.33;;
12774;SDS011;6451;42.630;23.382;2022-12-05T11:13:30;5.83;;;5.10;;
12774;SDS011;6451;42.630;23.382;2022-12-05T11:15:59;7.10;;;5.77;;
12774;SDS011;6451;42.630;23.382;2022-12-05T11:18:30;6.57;;;5.70;;
12774;SDS011;6451;42.630;23.382;2022-12-05T11:21:07;6.77;;;5.63;;
12774;SDS011;6451;42.630;23.382;2022-12-05T11:23:42;6.13;;;5.20;;
12774;SDS011;6451;42.630;23.382;2022-12-05T11:26:15;6.53;;;5.13;;
12774;SDS011;6451;42.630;23.382;2022-12-05T11:28:45;6.37;;;5.53;;
12774;SDS011;6451;42.630;23.382;2022-12-05T11:31:24;6.00;;;5.40;;
12774;SDS011;6451;42.630;23.382;2022-12-05T11:34:00;7.03;;;5.47;;
12774;SDS011;6451;42.630;23.382;2022-12-05T11:36:36;6.70;;;5.73;;
12774;SDS011;6451;42.630;23.382;2022-12-05T11:39:08;6.50;;;5.40;;
12774;SDS011;6451;42.630;23.382;2022-12-05T11:41:40;6.53;;;5.30;;
12774;SDS011;6451;42.630;23.382;2022-12-05T11:44:38;7.67;;;6.27;;
12774;SDS011;6451;42.630;23.382;2022-12-05T11:47:21;6.67;;;5.70;;
12774;SDS011;6451;42.630;23.382;2022-12-05T11:50:10;9.13;;;7.33;;
12774;SDS011;6451;42.630;23.382;2022-12-05T11:52:51;8.37;;;7.20;;
12774;SDS011;6451;42.630;23.382;2022-12-05T11:55:29;7.40;;;6.57;;
12774;SDS011;6451;42.630;23.382;2022-12-05T11:58:17;10.53;;;7.50;;
12774;SDS011;6451;42.630;23.382;2022-12-05T12:01:01;8.33;;;7.10;;
12774;SDS011;6451;42.630;23.382;2022-12-05T12:03:40;9.97;;;8.20;;
12774;SDS011;6451;42.630;23.382;2022-12-05T12:06:24;11.37;;;7.53;;
12774;SDS011;6451;42.630;23.382;2022-12-05T12:09:11;10.60;;;7.50;;
12774;SDS011;6451;42.630;23.382;2022-12-05T12:11:49;10.57;;;7.93;;
12774;SDS011;6451;42.630;23.382;2022-12-05T12:14:24;10.80;;;8.70;;
12774;SDS011;6451;42.630;23.382;2022-12-05T12:17:02;10.33;;;8.20;;
12774;SDS011;6451;42.630;23.382;2022-12-05T12:19:43;10.87;;;8.37;;
12774;SDS011;6451;42.630;23.382;2022-12-05T12:22:30;12.27;;;8.50;;
12774;SDS011;6451;42.630;23.382;2022-12-05T12:25:17;13.77;;;9.07;;
12774;SDS011;6451;42.630;23.382;2022-12-05T12:27:55;13.13;;;9.40;;
12774;SDS011;6451;42.630;23.382;2022-12-05T12:30:36;13.00;;;10.13;;
12774;SDS011;6451;42.630;23.382;2022-12-05T12:33:15;11.90;;;9.37;;
12774;SDS011;6451;42.630;23.382;2022-12-05T12:35:55;12.33;;;9.73;;
12774;SDS011;6451;42.630;23.382;2022-12-05T12:38:38;11.70;;;9.43;;
12774;SDS011;6451;42.630;23.382;2022-12-05T12:41:22;16.63;;;11.40;;
12774;SDS011;6451;42.630;23.382;2022-12-05T12:44:06;15.87;;;9.77;;
12774;SDS011;6451;42.630;23.382;2022-12-05T12:46:53;13.53;;;9.90;;
12774;SDS011;6451;42.630;23.382;2022-12-05T12:49:27;16.30;;;10.97;;
12774;SDS011;6451;42.630;23.382;2022-12-05T12:52:09;15.67;;;10.83;;
12774;SDS011;6451;42.630;23.382;2022-12-05T12:54:53;14.60;;;10.53;;
12774;SDS011;6451;42.630;23.382;2022-12-05T12:57:30;14.83;;;10.23;;
12774;SDS011;6451;42.630;23.382;2022-12-05T13:00:10;15.83;;;10.97;;
12774;SDS011;6451;42.630;23.382;2022-12-05T13:02:53;13.73;;;10.17;;
12774;SDS011;6451;42.630;23.382;2022-12-05T13:05:26;16.70;;;11.63;;
12774;SDS011;6451;42.630;23.382;2022-12-05T13:08:00;15.87;;;10.90;;
12774;SDS011;6451;42.630;23.382;2022-12-05T13:10:33;19.33;;;11.30;;
12774;SDS011;6451;42.630;23.382;2022-12-05T13:13:06;17.60;;;11.60;;
12774;SDS011;6451;42.630;23.382;2022-12-05T13:15:39;16.60;;;11.43;;
12774;SDS011;6451;42.630;23.382;2022-12-05T13:18:12;16.63;;;11.37;;
12774;SDS011;6451;42.630;23.382;2022-12-05T13:20:43;16.67;;;11.77;;
12774;SDS011;6451;42.630;23.382;2022-12-05T13:23:13;18.53;;;11.97;;
12774;SDS011;6451;42.630;23.382;2022-12-05T13:25:53;17.03;;;12.30;;
12774;SDS011;6451;42.630;23.382;2022-12-05T13:28:28;17.60;;;12.90;;
12774;SDS011;6451;42.630;23.382;2022-12-05T13:30:57;18.53;;;11.87;;
12774;SDS011;6451;42.630;23.382;2022-12-05T13:33:32;17.53;;;12.80;;
12774;SDS011;6451;42.630;23.382;2022-12-05T13:36:03;18.03;;;12.20;;
12774;SDS011;6451;42.630;23.382;2022-12-05T13:38:55;17.07;;;11.93;;
12774;SDS011;6451;42.630;23.382;2022-12-05T13:41:43;16.10;;;12.50;;
12774;SDS011;6451;42.630;23.382;2022-12-05T13:44:31;18.00;;;13.00;;
12774;SDS011;6451;42.630;23.382;2022-12-05T13:47:03;17.70;;;12.43;;
12774;SDS011;6451;42.630;23.382;2022-12-05T13:49:35;17.37;;;12.80;;
12774;SDS011;6451;42.630;23.382;2022-12-05T13:52:10;22.90;;;14.83;;
12774;SDS011;6451;42.630;23.382;2022-12-05T13:54:43;21.43;;;13.43;;
12774;SDS011;6451;42.630;23.382;2022-12-05T14:00:23;20.07;;;14.17;;
12774;SDS011;6451;42.630;23.382;2022-12-05T14:02:54;22.77;;;14.77;;
12774;SDS011;6451;42.630;23.382;2022-12-05T14:05:47;21.17;;;13.83;;
12774;SDS011;6451;42.630;23.382;2022-12-05T14:11:27;21.63;;;13.40;;
12774;SDS011;6451;42.630;23.382;2022-12-05T14:13:56;20.67;;;13.47;;
12774;SDS011;6451;42.630;23.382;2022-12-05T14:19:24;20.37;;;13.07;;
12774;SDS011;6451;42.630;23.382;2022-12-05T14:22:13;19.77;;;13.13;;
12774;SDS011;6451;42.630;23.382;2022-12-05T14:24:54;19.50;;;13.93;;
12774;SDS011;6451;42.630;23.382;2022-12-05T14:27:32;20.63;;;14.50;;
12774;SDS011;6451;42.630;23.382;2022-12-05T14:30:15;22.93;;;14.90;;
12774;SDS011;6451;42.630;23.382;2022-12-05T14:32:48;22.13;;;15.73;;
12774;SDS011;6451;42.630;23.382;2022-12-05T14:35:26;21.90;;;15.70;;
12774;SDS011;6451;42.630;23.382;2022-12-05T14:37:57;24.77;;;16.20;;
12774;SDS011;6451;42.630;23.382;2022-12-05T14:40:34;20.87;;;14.03;;
12774;SDS011;6451;42.630;23.382;2022-12-05T14:43:04;24.40;;;13.97;;
12774;SDS011;6451;42.630;23.382;2022-12-05T14:45:35;22.20;;;14.13;;
12774;SDS011;6451;42.630;23.382;2022-12-05T14:48:22;21.90;;;14.40;;
12774;SDS011;6451;42.630;23.382;2022-12-05T14:50:55;22.43;;;14.53;;
12774;SDS011;6451;42.630;23.382;2022-12-05T14:53:28;21.03;;;14.40;;
12774;SDS011;6451;42.630;23.382;2022-12-05T14:56:02;21.93;;;15.13;;
12774;SDS011;6451;42.630;23.382;2022-12-05T14:58:42;24.40;;;13.87;;
12774;SDS011;6451;42.630;23.382;2022-12-05T15:01:20;24.63;;;15.33;;
12774;SDS011;6451;42.630;23.382;2022-12-05T15:06:45;21.00;;;13.60;;
12774;SDS011;6451;42.630;23.382;2022-12-05T15:09:36;17.97;;;12.67;;
12774;SDS011;6451;42.630;23.382;2022-12-05T15:12:12;18.20;;;12.83;;
12774;SDS011;6451;42.630;23.382;2022-12-05T15:14:51;19.10;;;13.57;;
12774;SDS011;6451;42.630;23.382;2022-12-05T15:17:37;20.13;;;13.03;;
12774;SDS011;6451;42.630;23.382;2022-12-05T15:20:12;20.00;;;12.23;;
12774;SDS011;6451;42.630;23.382;2022-12-05T15:22:44;21.10;;;12.90;;
12774;SDS011;6451;42.630;23.382;2022-12-05T15:25:20;16.33;;;11.80;;
12774;SDS011;6451;42.630;23.382;2022-12-05T15:27:53;17.87;;;12.80;;